sensor_id;sensor_type;location;lat;lon;timestamp;temperature;humidity
9414;DHT22;4746;35.664;139.738;2024-01-16T00:00:37;4.60;33.50
9414;DHT22;4746;35.664;139.738;2024-01-16T00:03:05;4.70;32.60
9414;DHT22;4746;35.664;139.738;2024-01-16T00:05:32;4.90;32.40
9414;DHT22;4746;35.664;139.738;2024-01-16T00:08:00;4.90;31.20
9414;DHT22;4746;35.664;139.738;2024-01-16T00:10:27;5.00;30.10
9414;DHT22;4746;35.664;139.738;2024-01-16T00:12:56;5.00;29.60
9414;DHT22;4746;35.664;139.738;2024-01-16T00:15:24;5.00;29.10
9414;DHT22;4746;35.664;139.738;2024-01-16T00:17:51;4.80;28.20
9414;DHT22;4746;35.664;139.738;2024-01-16T00:20:19;4.90;28.20
9414;DHT22;4746;35.664;139.738;2024-01-16T00:22:49;4.80;27.60
9414;DHT22;4746;35.664;139.738;2024-01-16T00:25:17;4.80;26.80
9414;DHT22;4746;35.664;139.738;2024-01-16T00:27:48;4.70;26.30
9414;DHT22;4746;35.664;139.738;2024-01-16T00:30:16;4.70;26.40
9414;DHT22;4746;35.664;139.738;2024-01-16T00:32:45;4.80;26.20
9414;DHT22;4746;35.664;139.738;2024-01-16T00:35:13;4.80;26.20
9414;DHT22;4746;35.664;139.738;2024-01-16T00:37:44;4.80;26.30
9414;DHT22;4746;35.664;139.738;2024-01-16T00:40:12;4.90;26.00
9414;DHT22;4746;35.664;139.738;2024-01-16T00:42:43;4.90;25.50
9414;DHT22;4746;35.664;139.738;2024-01-16T00:45:12;5.00;25.80
9414;DHT22;4746;35.664;139.738;2024-01-16T00:47:40;4.90;25.80
9414;DHT22;4746;35.664;139.738;2024-01-16T00:50:07;4.90;25.10
9414;DHT22;4746;35.664;139.738;2024-01-16T00:52:35;4.90;24.70
9414;DHT22;4746;35.664;139.738;2024-01-16T00:55:03;4.90;24.30
9414;DHT22;4746;35.664;139.738;2024-01-16T00:57:31;4.80;24.10
9414;DHT22;4746;35.664;139.738;2024-01-16T00:59:59;4.80;24.40
9414;DHT22;4746;35.664;139.738;2024-01-16T01:02:26;4.90;24.60
9414;DHT22;4746;35.664;139.738;2024-01-16T01:04:54;4.90;24.60
9414;DHT22;4746;35.664;139.738;2024-01-16T01:07:21;4.80;24.20
9414;DHT22;4746;35.664;139.738;2024-01-16T01:09:48;4.80;24.50
9414;DHT22;4746;35.664;139.738;2024-01-16T01:12:16;4.70;24.00
9414;DHT22;4746;35.664;139.738;2024-01-16T01:14:44;4.70;24.10
9414;DHT22;4746;35.664;139.738;2024-01-16T01:17:11;4.60;24.30
9414;DHT22;4746;35.664;139.738;2024-01-16T01:19:39;4.50;24.40
9414;DHT22;4746;35.664;139.738;2024-01-16T01:22:06;4.50;23.80
9414;DHT22;4746;35.664;139.738;2024-01-16T01:24:34;4.50;23.90
9414;DHT22;4746;35.664;139.738;2024-01-16T01:27:01;4.60;23.80
9414;DHT22;4746;35.664;139.738;2024-01-16T01:29:29;4.60;23.80
9414;DHT22;4746;35.664;139.738;2024-01-16T01:31:57;4.70;23.60
9414;DHT22;4746;35.664;139.738;2024-01-16T01:34:24;4.70;23.40
9414;DHT22;4746;35.664;139.738;2024-01-16T01:36:53;4.80;23.70
9414;DHT22;4746;35.664;139.738;2024-01-16T01:39:23;4.90;24.20
9414;DHT22;4746;35.664;139.738;2024-01-16T01:41:55;5.10;24.20
9414;DHT22;4746;35.664;139.738;2024-01-16T01:44:24;5.10;23.80
9414;DHT22;4746;35.664;139.738;2024-01-16T01:46:57;5.10;23.60
9414;DHT22;4746;35.664;139.738;2024-01-16T01:49:26;5.10;23.30
9414;DHT22;4746;35.664;139.738;2024-01-16T01:51:55;5.10;23.20
9414;DHT22;4746;35.664;139.738;2024-01-16T01:54:24;5.30;23.30
9414;DHT22;4746;35.664;139.738;2024-01-16T01:56:55;5.40;23.60
9414;DHT22;4746;35.664;139.738;2024-01-16T01:59:26;5.50;23.20
9414;DHT22;4746;35.664;139.738;2024-01-16T02:02:05;5.70;22.90
9414;DHT22;4746;35.664;139.738;2024-01-16T02:04:34;5.90;22.80
9414;DHT22;4746;35.664;139.738;2024-01-16T02:07:04;5.90;22.10
9414;DHT22;4746;35.664;139.738;2024-01-16T02:09:34;5.80;21.70
9414;DHT22;4746;35.664;139.738;2024-01-16T02:12:05;5.90;22.10
9414;DHT22;4746;35.664;139.738;2024-01-16T02:14:33;5.90;21.90
9414;DHT22;4746;35.664;139.738;2024-01-16T02:17:01;5.80;22.10
9414;DHT22;4746;35.664;139.738;2024-01-16T02:19:29;5.90;22.00
9414;DHT22;4746;35.664;139.738;2024-01-16T02:22:00;5.90;21.60
9414;DHT22;4746;35.664;139.738;2024-01-16T02:24:36;6.00;21.80
9414;DHT22;4746;35.664;139.738;2024-01-16T02:27:05;6.00;21.30
9414;DHT22;4746;35.664;139.738;2024-01-16T02:29:33;6.00;20.70
9414;DHT22;4746;35.664;139.738;2024-01-16T02:32:03;6.00;20.10
9414;DHT22;4746;35.664;139.738;2024-01-16T02:34:34;6.00;19.40
9414;DHT22;4746;35.664;139.738;2024-01-16T02:37:02;6.00;19.20
9414;DHT22;4746;35.664;139.738;2024-01-16T02:39:30;6.10;19.50
9414;DHT22;4746;35.664;139.738;2024-01-16T02:41:59;6.20;19.10
9414;DHT22;4746;35.664;139.738;2024-01-16T02:44:28;6.30;19.00
9414;DHT22;4746;35.664;139.738;2024-01-16T02:46:56;6.40;18.70
9414;DHT22;4746;35.664;139.738;2024-01-16T02:49:24;6.40;17.50
9414;DHT22;4746;35.664;139.738;2024-01-16T02:51:52;6.40;16.80
9414;DHT22;4746;35.664;139.738;2024-01-16T02:54:21;6.50;15.40
9414;DHT22;4746;35.664;139.738;2024-01-16T02:56:48;6.50;14.70
9414;DHT22;4746;35.664;139.738;2024-01-16T02:59:17;6.50;14.60
9414;DHT22;4746;35.664;139.738;2024-01-16T03:01:44;6.50;14.20
9414;DHT22;4746;35.664;139.738;2024-01-16T03:04:13;6.50;13.90
9414;DHT22;4746;35.664;139.738;2024-01-16T03:06:40;6.70;14.00
9414;DHT22;4746;35.664;139.738;2024-01-16T03:09:08;6.80;13.80
9414;DHT22;4746;35.664;139.738;2024-01-16T03:11:35;7.00;13.90
9414;DHT22;4746;35.664;139.738;2024-01-16T03:14:04;7.00;13.40
9414;DHT22;4746;35.664;139.738;2024-01-16T03:16:32;6.90;13.40
9414;DHT22;4746;35.664;139.738;2024-01-16T03:19:00;6.80;13.60
9414;DHT22;4746;35.664;139.738;2024-01-16T03:21:27;6.90;13.70
9414;DHT22;4746;35.664;139.738;2024-01-16T03:23:55;6.90;13.70
9414;DHT22;4746;35.664;139.738;2024-01-16T03:26:24;6.80;14.20
9414;DHT22;4746;35.664;139.738;2024-01-16T03:28:51;6.80;14.40
9414;DHT22;4746;35.664;139.738;2024-01-16T03:31:20;6.70;14.50
9414;DHT22;4746;35.664;139.738;2024-01-16T03:33:48;6.70;14.60
9414;DHT22;4746;35.664;139.738;2024-01-16T03:36:16;6.80;15.10
9414;DHT22;4746;35.664;139.738;2024-01-16T03:38:44;6.80;16.00
9414;DHT22;4746;35.664;139.738;2024-01-16T03:41:12;6.70;16.00
9414;DHT22;4746;35.664;139.738;2024-01-16T03:43:40;6.60;16.50
9414;DHT22;4746;35.664;139.738;2024-01-16T03:46:10;6.60;17.20
9414;DHT22;4746;35.664;139.738;2024-01-16T03:48:38;6.60;17.90
9414;DHT22;4746;35.664;139.738;2024-01-16T03:51:05;6.50;18.30
9414;DHT22;4746;35.664;139.738;2024-01-16T03:53:33;6.40;18.60
9414;DHT22;4746;35.664;139.738;2024-01-16T03:56:00;6.30;18.90
9414;DHT22;4746;35.664;139.738;2024-01-16T03:58:28;6.40;19.30
9414;DHT22;4746;35.664;139.738;2024-01-16T04:00:55;6.50;19.60
9414;DHT22;4746;35.664;139.738;2024-01-16T04:03:23;6.40;19.50
9414;DHT22;4746;35.664;139.738;2024-01-16T04:05:51;6.40;19.90
9414;DHT22;4746;35.664;139.738;2024-01-16T04:08:18;6.40;20.10
9414;DHT22;4746;35.664;139.738;2024-01-16T04:10:46;6.50;20.50
9414;DHT22;4746;35.664;139.738;2024-01-16T04:13:13;6.60;20.40
9414;DHT22;4746;35.664;139.738;2024-01-16T04:15:41;6.80;20.60
9414;DHT22;4746;35.664;139.738;2024-01-16T04:18:10;6.90;20.90
9414;DHT22;4746;35.664;139.738;2024-01-16T04:20:38;7.10;20.30
9414;DHT22;4746;35.664;139.738;2024-01-16T04:23:05;7.20;19.80
9414;DHT22;4746;35.664;139.738;2024-01-16T04:25:33;7.40;19.30
9414;DHT22;4746;35.664;139.738;2024-01-16T04:28:00;7.50;18.90
9414;DHT22;4746;35.664;139.738;2024-01-16T04:30:38;7.30;17.30
9414;DHT22;4746;35.664;139.738;2024-01-16T04:33:07;7.20;17.60
9414;DHT22;4746;35.664;139.738;2024-01-16T04:35:35;7.20;17.10
9414;DHT22;4746;35.664;139.738;2024-01-16T04:38:03;7.30;17.20
9414;DHT22;4746;35.664;139.738;2024-01-16T04:40:30;7.50;17.20
9414;DHT22;4746;35.664;139.738;2024-01-16T04:42:58;7.90;17.80
9414;DHT22;4746;35.664;139.738;2024-01-16T04:45:26;8.30;18.00
9414;DHT22;4746;35.664;139.738;2024-01-16T04:47:53;8.50;17.40
9414;DHT22;4746;35.664;139.738;2024-01-16T04:50:21;8.50;16.40
9414;DHT22;4746;35.664;139.738;2024-01-16T04:52:49;8.70;16.20
9414;DHT22;4746;35.664;139.738;2024-01-16T04:55:16;8.80;16.30
9414;DHT22;4746;35.664;139.738;2024-01-16T04:57:44;8.80;16.80
9414;DHT22;4746;35.664;139.738;2024-01-16T05:00:12;8.90;17.10
9414;DHT22;4746;35.664;139.738;2024-01-16T05:02:39;9.20;17.50
9414;DHT22;4746;35.664;139.738;2024-01-16T05:05:07;9.20;17.20
9414;DHT22;4746;35.664;139.738;2024-01-16T05:07:35;9.30;17.10
9414;DHT22;4746;35.664;139.738;2024-01-16T05:10:02;9.30;17.30
9414;DHT22;4746;35.664;139.738;2024-01-16T05:12:31;9.50;17.70
9414;DHT22;4746;35.664;139.738;2024-01-16T05:14:58;9.70;17.20
9414;DHT22;4746;35.664;139.738;2024-01-16T05:17:26;9.60;17.30
9414;DHT22;4746;35.664;139.738;2024-01-16T05:19:54;9.60;17.20
9414;DHT22;4746;35.664;139.738;2024-01-16T05:22:21;9.70;17.30
9414;DHT22;4746;35.664;139.738;2024-01-16T05:24:51;9.50;16.70
9414;DHT22;4746;35.664;139.738;2024-01-16T05:27:20;9.70;17.30
9414;DHT22;4746;35.664;139.738;2024-01-16T05:29:47;9.90;17.40
9414;DHT22;4746;35.664;139.738;2024-01-16T05:32:17;9.80;17.10
9414;DHT22;4746;35.664;139.738;2024-01-16T05:34:44;10.00;16.30
9414;DHT22;4746;35.664;139.738;2024-01-16T05:37:12;9.70;16.90
9414;DHT22;4746;35.664;139.738;2024-01-16T05:39:40;9.90;16.50
9414;DHT22;4746;35.664;139.738;2024-01-16T05:42:07;9.70;15.70
9414;DHT22;4746;35.664;139.738;2024-01-16T05:44:35;9.40;15.60
9414;DHT22;4746;35.664;139.738;2024-01-16T05:47:02;9.20;15.70
9414;DHT22;4746;35.664;139.738;2024-01-16T05:49:30;9.30;16.00
9414;DHT22;4746;35.664;139.738;2024-01-16T05:51:58;9.20;16.00
9414;DHT22;4746;35.664;139.738;2024-01-16T05:54:27;9.40;16.20
9414;DHT22;4746;35.664;139.738;2024-01-16T05:56:55;9.40;16.20
9414;DHT22;4746;35.664;139.738;2024-01-16T05:59:22;9.60;16.20
9414;DHT22;4746;35.664;139.738;2024-01-16T06:01:50;9.50;16.00
9414;DHT22;4746;35.664;139.738;2024-01-16T06:04:17;9.40;16.00
9414;DHT22;4746;35.664;139.738;2024-01-16T06:06:45;9.50;15.90
9414;DHT22;4746;35.664;139.738;2024-01-16T06:09:14;9.50;15.90
9414;DHT22;4746;35.664;139.738;2024-01-16T06:11:43;9.50;15.70
9414;DHT22;4746;35.664;139.738;2024-01-16T06:14:15;9.50;15.90
9414;DHT22;4746;35.664;139.738;2024-01-16T06:16:48;9.80;16.20
9414;DHT22;4746;35.664;139.738;2024-01-16T06:19:15;9.90;16.20
9414;DHT22;4746;35.664;139.738;2024-01-16T06:21:43;9.90;16.00
9414;DHT22;4746;35.664;139.738;2024-01-16T06:24:10;9.80;16.10
9414;DHT22;4746;35.664;139.738;2024-01-16T06:26:43;9.80;16.10
9414;DHT22;4746;35.664;139.738;2024-01-16T06:29:10;9.40;16.00
9414;DHT22;4746;35.664;139.738;2024-01-16T06:31:39;9.50;16.40
9414;DHT22;4746;35.664;139.738;2024-01-16T06:34:07;9.90;16.60
9414;DHT22;4746;35.664;139.738;2024-01-16T06:36:35;10.00;16.10
9414;DHT22;4746;35.664;139.738;2024-01-16T06:39:02;10.30;16.10
9414;DHT22;4746;35.664;139.738;2024-01-16T06:41:31;10.40;15.70
9414;DHT22;4746;35.664;139.738;2024-01-16T06:43:58;10.40;15.90
9414;DHT22;4746;35.664;139.738;2024-01-16T06:46:26;10.40;15.60
9414;DHT22;4746;35.664;139.738;2024-01-16T06:48:53;10.40;15.70
9414;DHT22;4746;35.664;139.738;2024-01-16T06:51:21;10.50;15.60
9414;DHT22;4746;35.664;139.738;2024-01-16T06:53:49;10.60;15.60
9414;DHT22;4746;35.664;139.738;2024-01-16T06:56:17;10.80;15.80
9414;DHT22;4746;35.664;139.738;2024-01-16T06:58:44;11.20;16.10
9414;DHT22;4746;35.664;139.738;2024-01-16T07:01:12;10.90;15.30
9414;DHT22;4746;35.664;139.738;2024-01-16T07:03:40;10.80;15.60
9414;DHT22;4746;35.664;139.738;2024-01-16T07:06:07;10.70;15.30
9414;DHT22;4746;35.664;139.738;2024-01-16T07:08:35;10.60;15.30
9414;DHT22;4746;35.664;139.738;2024-01-16T07:11:02;10.60;15.30
9414;DHT22;4746;35.664;139.738;2024-01-16T07:13:34;10.40;15.10
9414;DHT22;4746;35.664;139.738;2024-01-16T07:16:02;10.30;15.20
9414;DHT22;4746;35.664;139.738;2024-01-16T07:18:30;10.00;15.60
9414;DHT22;4746;35.664;139.738;2024-01-16T07:20:59;9.70;16.10
9414;DHT22;4746;35.664;139.738;2024-01-16T07:23:28;9.80;16.70
9414;DHT22;4746;35.664;139.738;2024-01-16T07:25:55;9.50;16.50
9414;DHT22;4746;35.664;139.738;2024-01-16T07:28:23;9.40;16.80
9414;DHT22;4746;35.664;139.738;2024-01-16T07:30:53;9.00;16.80
9414;DHT22;4746;35.664;139.738;2024-01-16T07:33:21;8.40;17.10
9414;DHT22;4746;35.664;139.738;2024-01-16T07:35:48;7.80;17.40
9414;DHT22;4746;35.664;139.738;2024-01-16T07:38:16;7.70;18.40
9414;DHT22;4746;35.664;139.738;2024-01-16T07:40:43;7.50;18.40
9414;DHT22;4746;35.664;139.738;2024-01-16T07:43:11;7.30;19.40
9414;DHT22;4746;35.664;139.738;2024-01-16T07:45:38;7.20;19.20
9414;DHT22;4746;35.664;139.738;2024-01-16T07:48:06;6.90;19.00
9414;DHT22;4746;35.664;139.738;2024-01-16T07:50:34;6.80;19.20
9414;DHT22;4746;35.664;139.738;2024-01-16T07:53:02;6.70;19.10
9414;DHT22;4746;35.664;139.738;2024-01-16T07:55:29;6.40;19.30
9414;DHT22;4746;35.664;139.738;2024-01-16T07:57:57;6.20;19.60
9414;DHT22;4746;35.664;139.738;2024-01-16T08:00:24;6.10;20.00
9414;DHT22;4746;35.664;139.738;2024-01-16T08:02:53;6.00;20.40
9414;DHT22;4746;35.664;139.738;2024-01-16T08:05:21;5.90;20.60
9414;DHT22;4746;35.664;139.738;2024-01-16T08:07:51;5.80;20.80
9414;DHT22;4746;35.664;139.738;2024-01-16T08:10:19;5.70;21.10
9414;DHT22;4746;35.664;139.738;2024-01-16T08:12:46;5.60;21.30
9414;DHT22;4746;35.664;139.738;2024-01-16T08:15:14;5.50;21.50
9414;DHT22;4746;35.664;139.738;2024-01-16T08:17:42;5.40;21.80
9414;DHT22;4746;35.664;139.738;2024-01-16T08:20:10;5.40;22.00
9414;DHT22;4746;35.664;139.738;2024-01-16T08:22:38;5.30;22.20
9414;DHT22;4746;35.664;139.738;2024-01-16T08:25:06;5.30;22.70
9414;DHT22;4746;35.664;139.738;2024-01-16T08:27:34;5.20;22.90
9414;DHT22;4746;35.664;139.738;2024-01-16T08:30:05;5.10;23.20
9414;DHT22;4746;35.664;139.738;2024-01-16T08:32:33;5.10;23.30
9414;DHT22;4746;35.664;139.738;2024-01-16T08:35:01;5.00;23.50
9414;DHT22;4746;35.664;139.738;2024-01-16T08:37:28;5.00;23.70
9414;DHT22;4746;35.664;139.738;2024-01-16T08:39:56;5.00;24.00
9414;DHT22;4746;35.664;139.738;2024-01-16T08:42:23;5.00;24.10
9414;DHT22;4746;35.664;139.738;2024-01-16T08:44:51;4.90;24.20
9414;DHT22;4746;35.664;139.738;2024-01-16T08:47:18;4.90;24.30
9414;DHT22;4746;35.664;139.738;2024-01-16T08:49:46;4.90;24.30
9414;DHT22;4746;35.664;139.738;2024-01-16T08:52:14;4.90;24.80
9414;DHT22;4746;35.664;139.738;2024-01-16T08:54:42;4.90;24.40
9414;DHT22;4746;35.664;139.738;2024-01-16T08:57:09;4.80;24.50
9414;DHT22;4746;35.664;139.738;2024-01-16T08:59:37;4.80;24.50
9414;DHT22;4746;35.664;139.738;2024-01-16T09:02:05;4.80;24.60
9414;DHT22;4746;35.664;139.738;2024-01-16T09:04:33;4.80;24.60
9414;DHT22;4746;35.664;139.738;2024-01-16T09:07:00;4.80;24.70
9414;DHT22;4746;35.664;139.738;2024-01-16T09:09:30;4.80;24.70
9414;DHT22;4746;35.664;139.738;2024-01-16T09:11:58;4.70;24.90
9414;DHT22;4746;35.664;139.738;2024-01-16T09:14:25;4.80;25.70
9414;DHT22;4746;35.664;139.738;2024-01-16T09:16:53;4.90;26.50
9414;DHT22;4746;35.664;139.738;2024-01-16T09:19:21;5.10;27.40
9414;DHT22;4746;35.664;139.738;2024-01-16T09:21:48;5.10;27.20
9414;DHT22;4746;35.664;139.738;2024-01-16T09:24:16;5.30;27.10
9414;DHT22;4746;35.664;139.738;2024-01-16T09:26:45;5.30;26.50
9414;DHT22;4746;35.664;139.738;2024-01-16T09:29:13;5.30;26.00
9414;DHT22;4746;35.664;139.738;2024-01-16T09:31:41;5.30;26.10
9414;DHT22;4746;35.664;139.738;2024-01-16T09:34:09;5.40;26.30
9414;DHT22;4746;35.664;139.738;2024-01-16T09:36:39;5.40;25.90
9414;DHT22;4746;35.664;139.738;2024-01-16T09:39:07;5.40;26.00
9414;DHT22;4746;35.664;139.738;2024-01-16T09:41:38;5.50;26.20
9414;DHT22;4746;35.664;139.738;2024-01-16T09:44:11;5.40;25.50
9414;DHT22;4746;35.664;139.738;2024-01-16T09:46:40;5.50;26.00
9414;DHT22;4746;35.664;139.738;2024-01-16T09:49:15;5.60;25.40
9414;DHT22;4746;35.664;139.738;2024-01-16T09:51:46;5.60;25.00
9414;DHT22;4746;35.664;139.738;2024-01-16T09:54:13;5.70;24.90
9414;DHT22;4746;35.664;139.738;2024-01-16T09:56:44;5.70;24.70
9414;DHT22;4746;35.664;139.738;2024-01-16T09:59:17;5.60;24.60
9414;DHT22;4746;35.664;139.738;2024-01-16T10:01:45;5.70;24.60
9414;DHT22;4746;35.664;139.738;2024-01-16T10:04:15;5.70;25.20
9414;DHT22;4746;35.664;139.738;2024-01-16T10:06:45;5.80;25.20
9414;DHT22;4746;35.664;139.738;2024-01-16T10:09:13;5.80;24.60
9414;DHT22;4746;35.664;139.738;2024-01-16T10:11:44;5.80;24.40
9414;DHT22;4746;35.664;139.738;2024-01-16T10:14:13;5.90;25.30
9414;DHT22;4746;35.664;139.738;2024-01-16T10:16:58;6.00;26.00
9414;DHT22;4746;35.664;139.738;2024-01-16T10:19:51;6.00;26.50
9414;DHT22;4746;35.664;139.738;2024-01-16T10:22:24;6.00;25.50
9414;DHT22;4746;35.664;139.738;2024-01-16T10:25:06;5.90;26.60
9414;DHT22;4746;35.664;139.738;2024-01-16T10:27:37;5.90;25.90
9414;DHT22;4746;35.664;139.738;2024-01-16T10:30:06;6.10;26.40
9414;DHT22;4746;35.664;139.738;2024-01-16T10:32:39;6.10;25.60
9414;DHT22;4746;35.664;139.738;2024-01-16T10:35:13;6.10;25.20
9414;DHT22;4746;35.664;139.738;2024-01-16T10:37:50;6.10;25.10
9414;DHT22;4746;35.664;139.738;2024-01-16T10:40:23;6.10;24.80
9414;DHT22;4746;35.664;139.738;2024-01-16T10:43:03;6.00;24.10
9414;DHT22;4746;35.664;139.738;2024-01-16T10:45:32;5.90;23.80
9414;DHT22;4746;35.664;139.738;2024-01-16T10:48:04;5.90;23.30
9414;DHT22;4746;35.664;139.738;2024-01-16T10:50:34;5.80;23.00
9414;DHT22;4746;35.664;139.738;2024-01-16T10:53:05;5.80;22.90
9414;DHT22;4746;35.664;139.738;2024-01-16T10:55:54;5.70;22.90
9414;DHT22;4746;35.664;139.738;2024-01-16T10:58:24;5.70;23.00
9414;DHT22;4746;35.664;139.738;2024-01-16T11:00:55;5.70;23.00
9414;DHT22;4746;35.664;139.738;2024-01-16T11:03:46;5.60;23.30
9414;DHT22;4746;35.664;139.738;2024-01-16T11:06:18;5.60;23.40
9414;DHT22;4746;35.664;139.738;2024-01-16T11:08:47;5.60;23.20
9414;DHT22;4746;35.664;139.738;2024-01-16T11:11:16;5.60;23.50
9414;DHT22;4746;35.664;139.738;2024-01-16T11:13:45;5.70;23.60
9414;DHT22;4746;35.664;139.738;2024-01-16T11:16:13;5.70;23.60
9414;DHT22;4746;35.664;139.738;2024-01-16T11:18:41;5.60;23.30
9414;DHT22;4746;35.664;139.738;2024-01-16T11:21:13;5.50;23.20
9414;DHT22;4746;35.664;139.738;2024-01-16T11:23:42;5.60;23.60
9414;DHT22;4746;35.664;139.738;2024-01-16T11:26:31;5.60;23.80
9414;DHT22;4746;35.664;139.738;2024-01-16T11:31:55;5.60;23.40
9414;DHT22;4746;35.664;139.738;2024-01-16T11:37:13;5.60;23.40
9414;DHT22;4746;35.664;139.738;2024-01-16T11:39:40;5.50;23.30
9414;DHT22;4746;35.664;139.738;2024-01-16T11:42:08;5.50;23.30
9414;DHT22;4746;35.664;139.738;2024-01-16T11:44:48;5.50;24.20
9414;DHT22;4746;35.664;139.738;2024-01-16T11:47:23;5.40;23.60
9414;DHT22;4746;35.664;139.738;2024-01-16T11:50:13;5.50;23.50
9414;DHT22;4746;35.664;139.738;2024-01-16T11:52:53;5.50;23.50
9414;DHT22;4746;35.664;139.738;2024-01-16T11:55:34;5.50;23.30
9414;DHT22;4746;35.664;139.738;2024-01-16T12:01:06;5.50;23.20
9414;DHT22;4746;35.664;139.738;2024-01-16T12:03:34;5.50;23.30
9414;DHT22;4746;35.664;139.738;2024-01-16T12:06:02;5.50;23.40
9414;DHT22;4746;35.664;139.738;2024-01-16T12:08:32;5.50;23.20
9414;DHT22;4746;35.664;139.738;2024-01-16T12:11:00;5.50;23.30
9414;DHT22;4746;35.664;139.738;2024-01-16T12:13:27;5.50;23.10
9414;DHT22;4746;35.664;139.738;2024-01-16T12:16:06;5.60;23.20
9414;DHT22;4746;35.664;139.738;2024-01-16T12:18:34;5.60;23.10
9414;DHT22;4746;35.664;139.738;2024-01-16T12:21:09;5.60;23.00
9414;DHT22;4746;35.664;139.738;2024-01-16T12:23:43;5.60;23.20
9414;DHT22;4746;35.664;139.738;2024-01-16T12:26:21;5.60;23.30
9414;DHT22;4746;35.664;139.738;2024-01-16T12:28:55;5.70;23.00
9414;DHT22;4746;35.664;139.738;2024-01-16T12:31:23;5.70;23.00
9414;DHT22;4746;35.664;139.738;2024-01-16T12:34:02;5.80;22.80
9414;DHT22;4746;35.664;139.738;2024-01-16T12:36:34;5.80;22.70
9414;DHT22;4746;35.664;139.738;2024-01-16T12:39:03;5.90;22.40
9414;DHT22;4746;35.664;139.738;2024-01-16T12:41:41;5.90;22.20
9414;DHT22;4746;35.664;139.738;2024-01-16T12:44:12;6.00;22.30
9414;DHT22;4746;35.664;139.738;2024-01-16T12:46:40;6.00;22.00
9414;DHT22;4746;35.664;139.738;2024-01-16T12:49:08;5.90;21.80
9414;DHT22;4746;35.664;139.738;2024-01-16T12:51:37;6.00;22.10
9414;DHT22;4746;35.664;139.738;2024-01-16T12:54:15;6.10;22.20
9414;DHT22;4746;35.664;139.738;2024-01-16T12:56:48;6.20;22.00
9414;DHT22;4746;35.664;139.738;2024-01-16T12:59:27;6.30;21.60
9414;DHT22;4746;35.664;139.738;2024-01-16T13:01:58;6.30;21.20
9414;DHT22;4746;35.664;139.738;2024-01-16T13:04:28;6.30;21.50
9414;DHT22;4746;35.664;139.738;2024-01-16T13:07:06;6.30;21.30
9414;DHT22;4746;35.664;139.738;2024-01-16T13:09:33;6.20;21.00
9414;DHT22;4746;35.664;139.738;2024-01-16T13:12:19;6.20;21.00
9414;DHT22;4746;35.664;139.738;2024-01-16T13:14:48;6.20;21.20
9414;DHT22;4746;35.664;139.738;2024-01-16T13:17:19;6.20;21.10
9414;DHT22;4746;35.664;139.738;2024-01-16T13:19:50;6.20;21.30
9414;DHT22;4746;35.664;139.738;2024-01-16T13:22:19;6.30;21.10
9414;DHT22;4746;35.664;139.738;2024-01-16T13:24:47;6.40;21.70
9414;DHT22;4746;35.664;139.738;2024-01-16T13:27:14;6.30;21.30
9414;DHT22;4746;35.664;139.738;2024-01-16T13:29:42;6.40;21.50
9414;DHT22;4746;35.664;139.738;2024-01-16T13:32:11;6.40;21.60
9414;DHT22;4746;35.664;139.738;2024-01-16T13:34:39;6.50;21.40
9414;DHT22;4746;35.664;139.738;2024-01-16T13:37:19;6.50;21.20
9414;DHT22;4746;35.664;139.738;2024-01-16T13:39:49;6.60;21.10
9414;DHT22;4746;35.664;139.738;2024-01-16T13:42:17;6.60;21.00
9414;DHT22;4746;35.664;139.738;2024-01-16T13:44:46;6.60;21.00
9414;DHT22;4746;35.664;139.738;2024-01-16T13:47:15;6.50;21.20
9414;DHT22;4746;35.664;139.738;2024-01-16T13:49:45;6.50;20.90
9414;DHT22;4746;35.664;139.738;2024-01-16T13:52:13;6.50;20.90
9414;DHT22;4746;35.664;139.738;2024-01-16T13:54:40;6.50;20.80
9414;DHT22;4746;35.664;139.738;2024-01-16T13:57:08;6.50;21.00
9414;DHT22;4746;35.664;139.738;2024-01-16T13:59:36;6.50;21.20
9414;DHT22;4746;35.664;139.738;2024-01-16T14:02:05;6.60;21.40
9414;DHT22;4746;35.664;139.738;2024-01-16T14:04:34;6.60;21.40
9414;DHT22;4746;35.664;139.738;2024-01-16T14:07:02;6.60;21.40
9414;DHT22;4746;35.664;139.738;2024-01-16T14:09:33;6.60;21.50
9414;DHT22;4746;35.664;139.738;2024-01-16T14:12:01;6.70;21.20
9414;DHT22;4746;35.664;139.738;2024-01-16T14:14:29;6.70;21.10
9414;DHT22;4746;35.664;139.738;2024-01-16T14:16:57;6.60;20.80
9414;DHT22;4746;35.664;139.738;2024-01-16T14:19:25;6.50;20.90
9414;DHT22;4746;35.664;139.738;2024-01-16T14:21:54;6.40;20.90
9414;DHT22;4746;35.664;139.738;2024-01-16T14:24:21;6.30;21.10
9414;DHT22;4746;35.664;139.738;2024-01-16T14:26:49;6.20;20.90
9414;DHT22;4746;35.664;139.738;2024-01-16T14:29:16;6.20;21.00
9414;DHT22;4746;35.664;139.738;2024-01-16T14:31:45;6.30;20.80
9414;DHT22;4746;35.664;139.738;2024-01-16T14:34:15;6.40;20.30
9414;DHT22;4746;35.664;139.738;2024-01-16T14:36:43;6.50;20.20
9414;DHT22;4746;35.664;139.738;2024-01-16T14:39:11;6.60;20.00
9414;DHT22;4746;35.664;139.738;2024-01-16T14:41:43;6.60;19.60
9414;DHT22;4746;35.664;139.738;2024-01-16T14:44:11;6.70;19.50
9414;DHT22;4746;35.664;139.738;2024-01-16T14:46:40;6.80;19.70
9414;DHT22;4746;35.664;139.738;2024-01-16T14:49:11;6.80;19.50
9414;DHT22;4746;35.664;139.738;2024-01-16T14:51:39;6.90;19.10
9414;DHT22;4746;35.664;139.738;2024-01-16T14:54:06;7.00;18.70
9414;DHT22;4746;35.664;139.738;2024-01-16T14:56:35;7.10;18.80
9414;DHT22;4746;35.664;139.738;2024-01-16T14:59:02;7.10;18.70
9414;DHT22;4746;35.664;139.738;2024-01-16T15:01:30;7.20;18.40
9414;DHT22;4746;35.664;139.738;2024-01-16T15:04:01;7.20;18.50
9414;DHT22;4746;35.664;139.738;2024-01-16T15:06:29;7.20;18.60
9414;DHT22;4746;35.664;139.738;2024-01-16T15:08:57;7.20;19.00
9414;DHT22;4746;35.664;139.738;2024-01-16T15:11:24;7.20;19.50
9414;DHT22;4746;35.664;139.738;2024-01-16T15:13:52;7.20;19.40
9414;DHT22;4746;35.664;139.738;2024-01-16T15:16:23;7.30;19.20
9414;DHT22;4746;35.664;139.738;2024-01-16T15:18:51;7.40;19.00
9414;DHT22;4746;35.664;139.738;2024-01-16T15:21:19;7.40;18.70
9414;DHT22;4746;35.664;139.738;2024-01-16T15:23:46;7.40;18.30
9414;DHT22;4746;35.664;139.738;2024-01-16T15:26:14;7.40;18.10
9414;DHT22;4746;35.664;139.738;2024-01-16T15:28:46;7.40;17.90
9414;DHT22;4746;35.664;139.738;2024-01-16T15:31:14;7.40;18.00
9414;DHT22;4746;35.664;139.738;2024-01-16T15:33:41;7.30;18.00
9414;DHT22;4746;35.664;139.738;2024-01-16T15:36:09;7.30;18.20
9414;DHT22;4746;35.664;139.738;2024-01-16T15:38:37;7.30;18.20
9414;DHT22;4746;35.664;139.738;2024-01-16T15:41:04;7.30;18.40
9414;DHT22;4746;35.664;139.738;2024-01-16T15:43:32;7.20;18.70
9414;DHT22;4746;35.664;139.738;2024-01-16T15:46:00;7.20;18.90
9414;DHT22;4746;35.664;139.738;2024-01-16T15:48:28;7.20;18.90
9414;DHT22;4746;35.664;139.738;2024-01-16T15:51:00;7.10;18.80
9414;DHT22;4746;35.664;139.738;2024-01-16T15:53:27;7.10;18.70
9414;DHT22;4746;35.664;139.738;2024-01-16T15:55:55;7.10;18.80
9414;DHT22;4746;35.664;139.738;2024-01-16T15:58:22;7.10;18.90
9414;DHT22;4746;35.664;139.738;2024-01-16T16:00:50;7.10;19.00
9414;DHT22;4746;35.664;139.738;2024-01-16T16:03:18;7.10;19.10
9414;DHT22;4746;35.664;139.738;2024-01-16T16:05:47;7.10;19.10